Weather observations for the past three days for
New Ulm Municipal Airport
Imperial (Metric)
Date Time (cdt) Wind (mph) Vis. (mi.) Weather Sky Cond. Temperature (ºF) Relative Humidity Wind Chill (°F) Heat Index (°F) Pressure Precipitation (in)
Air Dwpt 6 hour altimeter (in) sea level (mb) 1 hr 3 hr 6 hr
Max. Min.
10 07:35 Calm 10.00 Partly Cloudy SCT100 42.8 33.8 71% 30.11 0.0
10 07:15 W 3 10.00 Fair CLR 39.2 30.2 70% 30.1 0.0
10 06:55 SW 5 10.00 Partly Cloudy SCT100 39.2 28.4 65% 36 30.09 0.0
10 06:35 Calm 10.00 Overcast OVC100 39.2 28.4 65% 30.09 0.0
10 06:15 W 3 10.00 Overcast OVC100 39.2 28.4 65% 30.09 0.0
10 05:55 Calm 10.00 Mostly Cloudy BKN100 39.2 28.4 65% 30.09 0.0
10 05:35 W 3 10.00 Partly Cloudy SCT100 37.4 28.4 70% 30.09 0.0
10 05:15 W 5 10.00 Fair CLR 39.2 28.4 65% 36 30.08 0.0
10 04:55 W 7 10.00 Partly Cloudy SCT090 39.2 28.4 65% 35 30.07 0.0
10 04:35 W 8 10.00 Mostly Cloudy BKN090 39.2 28.4 65% 34 30.07 0.0
10 04:15 W 7 10.00 Mostly Cloudy BKN090 37.4 28.4 70% 33 30.06 0.0
10 03:55 Calm 10.00 Partly Cloudy SCT090 39.2 28.4 65% 30.06 0.0
10 03:35 W 5 10.00 Mostly Cloudy BKN090 39.2 28.4 65% 36 30.05 0.0
10 03:15 W 3 10.00 Overcast OVC090 39.2 26.6 61% 30.05 0.0
10 02:55 W 3 10.00 Mostly Cloudy BKN090 39.2 26.6 61% 30.04 0.0
10 02:35 W 5 10.00 Partly Cloudy SCT090 39.2 26.6 61% 36 30.04 0.0
10 02:15 W 3 10.00 Partly Cloudy SCT090 41 26.6 57% 30.04 0.0
10 01:55 W 5 10.00 Mostly Cloudy BKN090 41 28.4 61% 38 30.04 0.0
10 01:35 W 6 10.00 Mostly Cloudy BKN090 41 26.6 57% 38 30.03 0.0
10 01:15 W 5 10.00 Mostly Cloudy BKN090 41 26.6 57% 38 30.03 0.0
10 00:55 Calm 10.00 Fair CLR 41 26.6 57% 30.03 0.0
10 00:35 Calm 10.00 Fair CLR 44.6 26.6 49% 30.03 0.0
10 00:15 NW 5 10.00 Fair CLR 44.6 26.6 49% 43 30.03 0.0
09 23:55 NW 5 10.00 Fair CLR 44.6 26.6 49% 43 30.02 0.0
09 23:35 NW 6 10.00 Fair CLR 44.6 26.6 49% 42 30.02 0.0
09 23:15 NW 6 10.00 Fair CLR 44.6 26.6 49% 42 30.02 0.0
09 22:55 NW 6 10.00 Fair CLR 46.4 26.6 46% 44 30.02 0.0
09 22:35 NW 6 10.00 Fair CLR 48.2 26.6 43% 46 30.01 0.0
09 22:15 NW 7 10.00 Fair CLR 51.8 28.4 41% 30 0.0
09 21:55 N 9 10.00 Fair CLR 51.8 28.4 41% 30 0.0
09 21:35 N 9 10.00 Fair CLR 53.6 28.4 38% 29.99 0.0
09 21:15 N 9 10.00 Fair CLR 53.6 28.4 38% 29.97 0.0
09 20:55 N 10 10.00 Fair CLR 53.6 28.4 38% 29.96 0.0
09 20:35 N 12 10.00 Fair CLR 55.4 28.4 36% 29.95 0.0
09 20:15 N 15 G 20 10.00 Fair CLR 55.4 28.4 36% 29.94 0.0
09 19:55 N 14 G 17 10.00 Fair CLR 57.2 28.4 33% 29.93 0.0
09 19:35 N 13 G 22 10.00 Fair CLR 57.2 28.4 33% 29.92 0.0
09 19:15 NW 17 10.00 Fair CLR 57.2 28.4 33% 29.92 0.0
09 18:55 NW 14 G 24 10.00 Fair CLR 59 28.4 31% 29.91 0.0
09 18:35 N 15 G 20 10.00 Fair CLR 59 28.4 31% 29.9 0.0
09 18:15 NW 16 G 28 10.00 Fair CLR 59 28.4 31% 29.9 0.0
09 17:55 N 15 G 23 10.00 Fair CLR 60.8 28.4 29% 29.89 0.0
09 17:35 N 13 G 26 10.00 Fair CLR 60.8 26.6 27% 29.88 0.0
09 17:15 N 18 G 28 10.00 Fair CLR 60.8 26.6 27% 29.88 0.0
09 16:55 N 14 G 29 10.00 Partly Cloudy SCT100 60.8 26.6 27% 29.87 0.0
09 16:35 N 20 G 25 10.00 Fair CLR 60.8 26.6 27% 29.87 0.0
09 16:15 NW 23 G 31 10.00 Fair and Breezy CLR 62.6 28.4 27% 29.86 0.0
09 15:55 N 15 G 29 10.00 Fair CLR 62.6 28.4 27% 29.86 0.0
09 15:35 N 17 G 28 10.00 Fair CLR 62.6 28.4 27% 29.85 0.0
09 15:15 N 10 G 28 10.00 Fair CLR 62.6 30.2 30% 29.85 0.0
09 14:55 N 17 G 26 10.00 Fair CLR 62.6 28.4 27% 29.84 0.0
09 14:35 NW 22 G 25 10.00 Partly Cloudy and Breezy SCT100 62.6 32 32% 29.84 0.0
09 14:15 NW 24 G 32 10.00 Fair and Breezy CLR 60.8 32 34% 29.84 0.0
09 13:55 NW 17 G 30 10.00 Fair CLR 60.8 33.8 36% 29.84 0.0
09 13:35 NW 23 G 32 10.00 Fair and Breezy CLR 60.8 32 34% 29.83 0.0
09 13:15 N 20 G 30 10.00 Fair CLR 60.8 33.8 36% 29.83 0.0
09 12:55 NW 16 G 28 10.00 Fair CLR 60.8 33.8 36% 29.82 0.0
09 12:35 N 18 G 26 10.00 Fair CLR 60.8 33.8 36% 29.82 0.0
09 11:55 N 15 G 29 10.00 Fair CLR 59 35.6 42% 29.81 0.0
09 11:35 NW 16 G 28 10.00 Fair CLR 59 35.6 42% 29.81 0.0
09 11:15 N 17 G 29 10.00 Fair CLR 57.2 33.8 41% 29.81 0.0
09 10:55 N 12 G 25 10.00 Fair CLR 57.2 35.6 44% 29.8 0.0
09 10:35 N 12 G 22 10.00 Fair CLR 57.2 37.4 48% 29.8 0.0
09 10:15 N 18 G 24 10.00 Fair CLR 55.4 37.4 51% 29.8 0.0
09 09:55 N 15 G 25 10.00 Partly Cloudy SCT035 55.4 41 59% 29.79 0.0
09 09:35 N 18 G 23 10.00 Partly Cloudy SCT031 55.4 42.8 63% 29.78 0.0
09 09:15 N 12 G 24 10.00 Partly Cloudy SCT029 53.6 42.8 67% 29.77 0.0
09 08:55 N 17 G 30 10.00 Partly Cloudy SCT021 53.6 44.6 72% 29.76 0.0
09 08:35 NW 16 G 21 10.00 Mostly Cloudy BKN021 53.6 46.4 77% 29.75 0.0
09 08:15 N 20 G 29 10.00 Fair CLR 53.6 46.4 77% 29.73 0.0
09 07:55 NW 20 G 23 10.00 Partly Cloudy SCT065 51.8 48.2 88% 29.72 0.0
09 07:35 NW 20 10.00 Mostly Cloudy BKN065 51.8 48.2 88% 29.72 0.0
09 07:15 NW 17 G 24 10.00 Mostly Cloudy BKN065 BKN090 51.8 48.2 88% 29.7 0.0
09 06:55 NW 16 10.00 Overcast BKN065 OVC080 51.8 46.4 82% 29.69 0.0
09 06:35 W 10 10.00 Rain BKN065 OVC090 50 44.6 82% 46 29.68 0.0
09 06:15 NW 17 10.00 Light Rain SCT050 BKN065 OVC080 51.8 46.4 82% 29.68 0.0
09 05:55 NW 7 10.00 Light Rain SCT050 BKN065 OVC090 50 39.2 67% 48 29.67 0.0
09 05:35 W 5 10.00 Overcast SCT075 OVC100 50 39.2 67% 49 29.68 0.0
09 05:15 NW 6 10.00 Mostly Cloudy BKN100 50 37.4 62% 48 29.68 0.0
09 04:55 N 8 10.00 Partly Cloudy SCT110 51.8 37.4 58% 29.68 0.0
09 04:35 NW 10 10.00 Overcast OVC110 51.8 35.6 54% 29.67 0.0
09 04:15 NW 5 10.00 Overcast OVC110 48.2 35.6 62% 47 29.65 0.0
09 03:55 NW 12 G 23 10.00 Mostly Cloudy BKN110 48.2 35.6 62% 44 29.65 0.0
09 03:35 SW 5 10.00 Partly Cloudy SCT100 48.2 33.8 58% 47 29.61 0.0
09 03:15 SW 6 10.00 Fair CLR 48.2 33.8 58% 46 29.6 0.0
09 02:55 SW 6 10.00 Fair CLR 48.2 33.8 58% 46 29.61 0.0
09 02:35 SW 7 10.00 Fair CLR 48.2 33.8 58% 46 29.61 0.0
09 02:15 SW 8 10.00 Fair CLR 48.2 33.8 58% 45 29.61 0.0
09 01:55 SW 7 10.00 Fair CLR 48.2 33.8 58% 46 29.62 0.0
09 01:35 SW 7 10.00 Fair CLR 48.2 33.8 58% 46 29.63 0.0
09 01:15 SW 6 10.00 Fair CLR 50 33.8 54% 48 29.64 0.0
09 00:55 SW 7 10.00 Fair CLR 51.8 33.8 50% 29.64 0.0
09 00:35 SW 5 10.00 Fair CLR 51.8 32 47% 29.65 0.0
09 00:15 SW 5 10.00 Fair CLR 48.2 32 54% 47 29.66 0.0
08 23:55 W 5 10.00 Fair CLR 51.8 32 47% 29.66 0.0
08 23:35 W 6 10.00 Fair CLR 51.8 30.2 44% 29.67 0.0
08 23:15 W 5 10.00 Fair CLR 55.4 32 41% 29.67 0.0
08 22:55 NW 6 10.00 Fair CLR 55.4 32 41% 29.68 0.0
08 22:35 NW 7 10.00 Fair CLR 55.4 32 41% 29.68 0.0
08 22:15 NW 5 10.00 Fair CLR 59 32 36% 29.67 0.0
08 21:55 NW 9 10.00 Fair CLR 60.8 33.8 36% 29.67 0.0
08 21:35 NW 12 10.00 Fair CLR 62.6 33.8 34% 29.67 0.0
08 21:15 NW 16 10.00 Fair CLR 62.6 33.8 34% 29.65 0.0
08 20:55 NW 17 G 22 10.00 Fair CLR 64.4 33.8 32% 29.64 0.0
08 20:35 NW 10 10.00 Fair CLR 64.4 33.8 32% 29.64 0.0
08 20:15 NW 17 G 23 10.00 Fair CLR 66.2 33.8 30% 29.63 0.0
08 19:55 NW 17 G 25 10.00 Fair CLR 68 33.8 28% 29.62 0.0
08 19:35 NW 21 G 28 10.00 Fair and Breezy CLR 69.8 33.8 27% 29.62 0.0
08 19:15 NW 21 10.00 Fair and Breezy CLR 69.8 35.6 29% 29.61 0.0
08 18:55 NW 22 G 30 10.00 Fair and Breezy CLR 71.6 37.4 29% 29.61 0.0
08 18:35 NW 23 G 33 10.00 Fair and Breezy CLR 71.6 37.4 29% 29.61 0.0
08 18:15 NW 21 G 33 10.00 Fair and Breezy CLR 71.6 37.4 29% 29.61 0.0
08 17:55 NW 22 G 32 10.00 Fair and Breezy CLR 73.4 37.4 27% 29.61 0.0
08 17:35 NW 23 G 32 10.00 Fair and Breezy CLR 73.4 39.2 29% 29.6 0.0
08 17:15 NW 24 G 30 10.00 Partly Cloudy and Breezy SCT110 73.4 39.2 29% 29.6 0.0
08 16:55 NW 17 G 22 10.00 Partly Cloudy SCT110 71.6 39.2 31% 29.6 0.0
08 16:35 NW 15 10.00 Partly Cloudy SCT100 73.4 39.2 29% 29.61 0.0
08 16:15 W 14 G 21 10.00 Partly Cloudy SCT110 73.4 39.2 29% 29.61 0.0
08 15:55 NW 16 G 21 10.00 Partly Cloudy SCT110 71.6 37.4 29% 29.62 0.0
08 15:35 W 14 10.00 Partly Cloudy SCT100 73.4 37.4 27% 29.63 0.0
08 15:15 NW 13 G 21 10.00 Partly Cloudy SCT100 73.4 37.4 27% 29.64 0.0
08 14:55 NW 10 G 20 10.00 Partly Cloudy SCT100 71.6 37.4 29% 29.65 0.0
08 14:35 W 15 G 28 10.00 Partly Cloudy SCT100 71.6 39.2 31% 29.66 0.0
08 14:15 W 20 G 32 10.00 Fair CLR 69.8 35.6 29% 29.67 0.0
08 13:55 W 17 G 28 10.00 Partly Cloudy SCT120 71.6 35.6 27% 29.67 0.0
08 13:35 NW 18 G 23 10.00 Partly Cloudy SCT120 69.8 33.8 27% 29.68 0.0
08 13:15 W 17 G 22 10.00 Partly Cloudy SCT120 69.8 33.8 27% 29.68 0.0
08 12:55 NW 15 G 25 10.00 Fair CLR 71.6 33.8 25% 29.69 0.0
08 12:35 NW 16 G 23 10.00 Fair CLR 71.6 33.8 25% 29.69 0.0
08 12:15 W 12 G 24 10.00 Fair CLR 69.8 33.8 27% 29.71 0.0
08 11:55 W 8 G 22 10.00 Fair CLR 69.8 32 25% 29.72 0.0
08 11:35 W 14 G 18 10.00 Fair CLR 68 33.8 28% 29.73 0.0
08 11:15 NW 10 G 16 10.00 Partly Cloudy SCT100 66.2 33.8 30% 29.74 0.0
08 10:55 NW 10 G 18 10.00 Mostly Cloudy BKN100 66.2 33.8 30% 29.74 0.0
08 10:35 W 15 G 21 10.00 Mostly Cloudy BKN100 66.2 32 28% 29.74 0.0
08 10:15 W 16 G 22 10.00 Mostly Cloudy BKN100 66.2 33.8 30% 29.75 0.0
08 09:55 W 12 10.00 Mostly Cloudy BKN100 64.4 35.6 34% 29.76 0.0
08 09:35 SW 12 G 16 10.00 Partly Cloudy SCT100 62.6 33.8 34% 29.76 0.0
08 09:15 SW 10 10.00 Partly Cloudy SCT110 60.8 33.8 36% 29.76 0.0
08 08:55 SW 12 10.00 Partly Cloudy SCT110 57.2 33.8 41% 29.77 0.0
08 08:35 SW 7 10.00 Partly Cloudy SCT110 55.4 33.8 44% 29.77 0.0
08 08:15 SW 7 10.00 Partly Cloudy SCT110 53.6 33.8 47% 29.78 0.0
08 07:55 SW 8 10.00 Partly Cloudy SCT110 51.8 32 47% 29.78 0.0
08 07:35 SW 7 10.00 Partly Cloudy SCT110 48.2 30.2 50% 46 29.78 0.0
08 07:15 SW 6 10.00 Fair CLR 46.4 30.2 53% 44 29.78 0.0
08 06:55 SW 6 10.00 Fair CLR 44.6 28.4 53% 42 29.78 0.0
08 06:35 S 6 10.00 Fair CLR 42.8 28.4 57% 40 29.78 0.0
08 06:15 SW 6 10.00 Fair CLR 42.8 28.4 57% 40 29.78 0.0
08 05:55 S 6 10.00 Fair CLR 44.6 26.6 49% 42 29.78 0.0
08 05:35 SW 7 10.00 Fair CLR 42.8 26.6 53% 39 29.78 0.0
08 05:15 SW 5 10.00 Fair CLR 42.8 26.6 53% 41 29.78 0.0
08 04:55 S 7 10.00 Fair CLR 44.6 28.4 53% 41 29.78 0.0
08 04:35 SW 6 10.00 Fair CLR 42.8 28.4 57% 40 29.78 0.0
08 04:15 S 6 10.00 Fair CLR 42.8 28.4 57% 40 29.78 0.0
08 03:55 SW 6 10.00 Fair CLR 42.8 28.4 57% 40 29.79 0.0
08 03:35 S 7 10.00 Fair CLR 41 28.4 61% 37 29.79 0.0
08 03:15 SW 5 10.00 Fair CLR 41 28.4 61% 38 29.8 0.0
08 02:55 S 6 10.00 Fair CLR 42.8 28.4 57% 40 29.8 0.0
08 02:35 S 6 10.00 Fair CLR 42.8 28.4 57% 40 29.8 0.0
08 02:15 S 7 10.00 Fair CLR 42.8 28.4 57% 39 29.8 0.0
08 01:55 S 7 10.00 Fair CLR 41 26.6 57% 37 29.81 0.0
08 01:35 S 7 10.00 Fair CLR 41 26.6 57% 37 29.81 0.0
08 01:15 S 7 10.00 Fair CLR 39.2 26.6 61% 35 29.82 0.0
08 00:55 S 6 10.00 Fair CLR 42.8 28.4 57% 40 29.82 0.0
08 00:35 S 3 10.00 Fair CLR 42.8 28.4 57% 29.82 0.0
08 00:15 S 5 10.00 Fair CLR 42.8 28.4 57% 41 29.82 0.0
07 23:55 S 3 10.00 Fair CLR 46.4 26.6 46% 29.83 0.0
07 23:35 Calm 10.00 Fair CLR 46.4 26.6 46% 29.83 0.0
07 23:15 Calm 10.00 Fair CLR 48.2 26.6 43% 29.83 0.0
07 22:55 Calm 10.00 Fair CLR 51.8 26.6 38% 29.83 0.0
07 22:35 Calm 10.00 Fair CLR 50 26.6 40% 29.84 0.0
07 22:15 Calm 10.00 Fair CLR 51.8 26.6 38% 29.84 0.0
07 21:55 Calm 10.00 Fair CLR 51.8 26.6 38% 29.83 0.0
07 21:35 Calm 10.00 Fair CLR 53.6 26.6 35% 29.83 0.0
07 21:15 Calm 10.00 Fair CLR 53.6 26.6 35% 29.83 0.0
07 20:55 Calm 10.00 Fair CLR 55.4 26.6 33% 29.82 0.0
07 20:35 N 5 10.00 Fair CLR 57.2 28.4 33% 29.81 0.0
07 20:15 N 7 10.00 Fair CLR 57.2 28.4 33% 29.81 0.0
07 19:55 N 10 10.00 Fair CLR 59 28.4 31% 29.81 0.0
07 19:35 NW 9 10.00 Fair CLR 59 28.4 31% 29.8 0.0
07 19:15 NW 10 10.00 Fair CLR 60.8 28.4 29% 29.8 0.0
07 18:55 NW 9 10.00 Fair CLR 60.8 28.4 29% 29.8 0.0
07 18:35 NW 9 10.00 Fair CLR 60.8 28.4 29% 29.81 0.0
07 18:15 NW 10 10.00 Fair CLR 60.8 26.6 27% 29.81 0.0
07 17:55 NW 12 G 18 10.00 Fair CLR 60.8 26.6 27% 29.81 0.0
07 17:35 NW 15 G 21 10.00 Fair CLR 62.6 28.4 27% 29.81 0.0
07 17:15 NW 16 G 20 10.00 Fair CLR 62.6 28.4 27% 29.81 0.0
07 16:55 NW 8 G 16 10.00 Fair CLR 60.8 28.4 29% 29.82 0.0
07 16:35 NW 13 G 18 10.00 Fair CLR 60.8 28.4 29% 29.82 0.0
07 16:15 NW 12 G 20 10.00 Fair CLR 60.8 28.4 29% 29.83 0.0
07 15:55 N 10 G 23 10.00 Fair CLR 60.8 28.4 29% 29.83 0.0
07 15:35 NW 14 G 20 10.00 Fair CLR 60.8 28.4 29% 29.84 0.0
07 15:15 NW 8 G 20 10.00 Fair CLR 60.8 28.4 29% 29.84 0.0
07 14:55 N 10 G 24 10.00 Fair CLR 59 26.6 29% 29.85 0.0
07 14:35 NW 13 G 18 10.00 Fair CLR 57.2 26.6 31% 29.85 0.0
07 14:15 NW 15 G 21 10.00 Fair CLR 59 28.4 31% 29.86 0.0
07 13:55 NW 12 G 23 10.00 Fair CLR 57.2 26.6 31% 29.86 0.0
07 13:35 W 12 G 21 10.00 Fair CLR 57.2 28.4 33% 29.86 0.0
07 13:15 N 5 G 18 10.00 Fair CLR 55.4 26.6 33% 29.87 0.0
07 12:55 N 9 10.00 Fair CLR 55.4 26.6 33% 29.88 0.0
07 12:35 NW 8 10.00 Fair CLR 55.4 26.6 33% 29.88 0.0
07 12:15 NE 7 10.00 Fair CLR 53.6 24.8 33% 29.89 0.0
07 11:55 W 6 10.00 Fair CLR 53.6 26.6 35% 29.89 0.0
07 11:35 NE 6 10.00 Fair CLR 53.6 24.8 33% 29.9 0.0
07 11:15 E 3 10.00 Fair CLR 51.8 26.6 38% 29.9 0.0
07 10:55 NE 3 10.00 Fair CLR 51.8 24.8 35% 29.9 0.0
07 10:35 N 5 10.00 Fair CLR 51.8 26.6 38% 29.9 0.0
07 10:15 N 3 10.00 Fair CLR 50 26.6 40% 29.9 0.0
07 09:55 NE 3 10.00 Fair CLR 50 26.6 40% 29.9 0.0
07 09:35 NE 5 10.00 Fair CLR 48.2 26.6 43% 47 29.9 0.0
07 09:15 Calm 10.00 Fair CLR 48.2 30.2 50% 29.9 0.0
07 08:55 N 3 10.00 Fair CLR 46.4 32 57% 29.9 0.0
07 08:35 E 3 10.00 Partly Cloudy SCT090 46.4 32 57% 29.9 0.0
07 08:15 E 3 10.00 Mostly Cloudy BKN090 44.6 32 61% 29.9 0.0
07 07:55 Calm 10.00 Overcast OVC090 44.6 30.2 57% 29.91 0.0
Date Time (cdt) Wind (mph) Vis. (mi.) Weather Sky Cond. Air Dwpt Max. Min. Relative Humidity Wind Chill (°F) Heat Index (°F) altimeter (in) sea level (mb) 1 hr 3 hr 6 hr
6 hour
Temperature (ºF) Pressure Precipitation (in)